Latest Weather Observations for Port Fairy

IDV60801

Issued at 11:02 am EDT Friday 31 March 2017 (issued every 30 minutes, with the page automatically refreshed every 10 minutes)

About weather observations | Map of weather stations | Latest weather observations for VIC | Other Formats
Station Details ID: 090175 Name: PORT FAIRY AWS Lat: -38.39 Lon: 142.23 Height: 10.0 m
Data from the previous 72 hours. | See also: Recent months at Port Fairy
Date/Time
EDT
Temp
°C
App
Temp
°C
Dew
Point
°C
Rel
Hum
%
Delta-T
°C
Wind Press
QNH
hPa
Press
MSL
hPa
Rain since
9am
mm
Dir  Spd
km/h
Gust
km/h
Spd
kts
Gust
kts
31/11:00am 14.8 12.6 7.8 63 3.5 WNW 9 15 5 8 1023.0 1023.0 0.0
31/10:30am 13.4 11.0 8.5 72 2.4 NW 11 17 6 9 1023.1 1023.1 0.0
31/10:00am 12.0 10.2 8.1 77 1.9 NW 7 13 4 7 1023.2 1023.2 0.0
31/09:30am 11.6 9.4 7.7 77 1.9 NNW 9 13 5 7 1023.2 1023.2 0.0
31/09:00am 11.2 9.2 7.3 77 1.9 NNW 7 13 4 7 1023.2 1023.2 0.4
31/08:30am 10.8 9.0 7.3 79 1.7 NW 6 9 3 5 1023.1 1023.1 0.4
31/08:00am 10.4 9.0 7.3 81 1.5 NW 4 6 2 3 1022.8 1022.8 0.4
31/07:30am 10.1 8.3 7.2 82 1.4 WNW 6 11 3 6 1022.4 1022.4 0.4
31/07:00am 9.7 7.9 7.0 83 1.3 NW 6 9 3 5 1022.0 1022.0 0.4
31/06:30am 9.4 7.2 6.1 80 1.5 NW 7 11 4 6 1021.6 1021.6 0.4
31/06:00am 9.0 6.6 5.2 77 1.7 NW 7 11 4 6 1021.2 1021.2 0.4
31/05:30am 9.1 6.8 4.7 74 2.0 NNW 6 7 3 4 1021.0 1021.0 0.4
31/05:00am 9.5 7.2 4.7 72 2.1 NW 6 9 3 5 1020.9 1020.9 0.4
31/04:30am 12.9 10.3 6.3 64 3.1 SW 9 17 5 9 1021.1 1021.1 0.4
31/04:00am 13.0 10.4 6.1 63 3.3 SSW 9 17 5 9 1021.1 1021.1 0.4
31/03:30am 13.1 10.3 5.3 59 3.6 SSW 9 15 5 8 1021.3 1021.3 0.4
31/03:00am 13.1 10.3 5.3 59 3.6 S 9 15 5 8 1021.4 1021.4 0.4
31/02:30am 13.2 10.0 5.1 58 3.8 SSW 11 17 6 9 1021.8 1021.8 0.4
31/02:00am 13.3 9.7 5.0 57 3.8 SSW 13 17 7 9 1022.0 1022.0 0.4
31/01:30am 13.3 9.7 5.2 58 3.8 SSW 13 19 7 10 1022.3 1022.3 0.4
31/01:00am 13.2 10.1 5.4 59 3.6 S 11 15 6 8 1022.5 1022.5 0.4
31/12:30am 13.3 9.9 5.7 60 3.6 S 13 19 7 10 1022.6 1022.6 0.4
31/12:00am 13.6 9.4 5.5 58 3.8 SSW 17 24 9 13 1022.9 1022.9 0.4
 
Date/Time
EDT
Temp
°C
App
Temp
°C
Dew
Point
°C
Rel
Hum
%
Delta-T
°C
Wind Press
QNH
hPa
Press
MSL
hPa
Rain since
9am
mm
Dir  Spd
km/h
Gust
km/h
Spd
kts
Gust
kts
30/11:30pm 13.7 9.7 6.6 62 3.4 SSW 17 26 9 14 1023.0 1023.0 0.4
30/11:00pm 13.6 9.1 6.2 61 3.5 SSW 19 26 10 14 1023.3 1023.3 0.4
30/10:30pm 13.7 9.2 7.0 64 3.3 SSW 20 28 11 15 1023.5 1023.5 0.4
30/10:00pm 13.9 8.6 6.7 62 3.5 SSW 24 33 13 18 1023.5 1023.5 0.4
30/09:30pm 14.0 8.7 6.6 61 3.6 SSW 24 33 13 18 1023.5 1023.5 0.4
30/09:00pm 14.0 8.8 7.3 64 3.3 SSW 24 35 13 19 1023.4 1023.4 0.4
30/08:30pm 13.9 8.9 6.3 60 3.6 SW 22 30 12 16 1023.1 1023.1 0.4
30/08:00pm 14.0 8.0 5.1 55 4.1 SW 26 35 14 19 1022.8 1022.8 0.4
30/07:30pm 14.0 8.2 6.4 60 3.6 SW 26 35 14 19 1022.4 1022.4 0.4
30/07:00pm 14.0 9.1 7.1 63 3.3 SSW 22 32 12 17 1022.0 1022.0 0.4
30/06:30pm 14.2 9.4 7.5 64 3.3 SSW 22 30 12 16 1021.6 1021.6 0.4
30/06:00pm 14.6 9.8 7.2 61 3.6 SW 22 32 12 17 1021.4 1021.4 0.4
30/05:30pm 15.1 10.2 8.6 65 3.3 SSW 24 35 13 19 1021.4 1021.4 0.4
30/05:00pm 14.9 9.4 7.7 62 3.6 SW 26 33 14 18 1021.0 1021.0 0.4
30/04:30pm 15.5 9.7 7.8 60 3.8 SW 28 39 15 21 1020.8 1020.8 0.4
30/04:00pm 15.0 8.7 8.9 67 3.1 SW 32 41 17 22 1020.5 1020.5 0.4
30/03:30pm 15.8 9.9 7.3 57 4.2 SW 28 35 15 19 1020.2 1020.2 0.4
30/03:00pm 16.3 11.3 8.0 58 4.2 SW 24 30 13 16 1020.1 1020.1 0.4
30/02:30pm 15.5 10.1 8.0 61 3.8 SW 26 35 14 19 1020.0 1020.0 0.4
30/02:00pm 15.1 8.3 6.7 57 4.1 SW 32 43 17 23 1020.0 1020.0 0.4
30/01:39pm 16.0 10.5 9.2 64 3.5 SW 28 48 15 26 1020.1 1020.1 0.4
30/01:30pm 15.9 11.2 9.3 65 3.4 SSW 24 35 13 19 1020.0 1020.0 0.4
30/01:00pm 15.9 10.2 8.4 61 3.8 SW 28 37 15 20 1020.1 1020.1 0.4
30/12:30pm 15.2 10.8 8.9 66 3.2 SW 22 33 12 18 1019.8 1019.8 0.4
30/12:01pm 12.8 6.2 8.5 75 2.1 SSW 33 52 18 28 1019.9 1019.9 0.4
30/12:00pm 12.7 5.3 8.2 74 2.2 SSW 37 52 20 28 1020.0 1020.0 0.4
30/11:42am 15.3 9.6 8.5 64 3.4 SW 28 48 15 26 1019.6 1019.6 0.2
30/11:30am 14.7 10.2 8.6 67 3.1 SSW 22 32 12 17 1019.4 1019.4 0.2
30/11:00am 13.0 6.7 9.1 77 2.0 WSW 32 46 17 25 1019.4 1019.4 0.2
30/10:33am 12.8 6.9 8.9 77 2.0 SW 30 50 16 27 1019.2 1019.2 0.2
30/10:30am 12.8 6.2 8.5 75 2.1 SW 33 50 18 27 1019.2 1019.2 0.2
30/10:23am 15.2 9.6 8.9 66 3.2 SW 28 50 15 27 1019.0 1019.0 0.0
30/10:00am 14.7 9.3 8.0 64 3.3 SW 26 35 14 19 1018.7 1018.7 0.0
30/09:30am 13.7 10.1 8.3 70 2.7 SSW 17 28 9 15 1018.4 1018.4 0.0
30/09:00am 13.4 9.3 8.5 72 2.4 SSW 20 30 11 16 1017.9 1017.9 5.4
30/08:32am 12.0 5.6 8.5 79 1.7 SSW 32 52 17 28 1017.4 1017.4 5.4
30/08:30am 12.0 5.3 8.3 78 1.8 SSW 33 52 18 28 1017.4 1017.4 5.4
30/08:23am 13.6 7.9 8.4 71 2.6 SSW 28 52 15 28 1017.3 1017.3 5.0
30/08:00am 13.7 7.0 7.5 66 3.0 SW 32 43 17 23 1016.6 1016.6 5.0
30/07:30am 13.2 8.4 8.7 74 2.3 SSW 24 35 13 19 1016.1 1016.1 5.0
30/07:00am 12.9 8.0 8.4 74 2.2 SW 24 32 13 17 1015.7 1015.7 5.0
30/06:56am 12.7 7.0 8.2 74 2.2 SW 28 46 15 25 1015.7 1015.7 5.0
30/06:30am 12.0 3.6 7.3 73 2.3 WSW 41 63 22 34 1015.3 1015.3 5.0
30/06:29am 12.1 3.3 7.4 73 2.3 WSW 43 63 23 34 1015.3 1015.3 5.0
30/06:16am 13.9 6.5 8.3 69 2.8 SW 37 57 20 31 1015.0 1015.0 5.0
30/06:15am 14.1 7.1 8.5 69 2.8 SW 35 48 19 26 1014.9 1014.9 5.0
30/06:00am 12.7 6.8 7.6 71 2.5 WSW 28 41 15 22 1014.6 1014.6 5.0
30/05:30am 13.9 7.0 7.4 65 3.2 SW 33 43 18 23 1014.1 1014.1 5.0
30/05:00am 13.8 7.0 7.1 64 3.3 SW 32 43 17 23 1013.8 1013.8 5.0
30/04:30am 13.5 7.5 8.6 72 2.5 SW 30 39 16 21 1013.7 1013.7 5.0
30/04:09am 13.0 6.1 8.7 75 2.2 SW 35 56 19 30 1013.5 1013.5 5.0
30/04:00am 13.3 5.2 8.6 73 2.4 SW 41 59 22 32 1013.5 1013.5 5.0
30/03:55am 14.1 7.5 8.7 70 2.7 WSW 33 59 18 32 1013.4 1013.4 5.0
30/03:30am 13.8 6.9 7.3 65 3.2 WSW 33 43 18 23 1013.3 1013.3 5.0
30/03:00am 13.8 6.6 7.6 66 3.0 WSW 35 48 19 26 1013.2 1013.2 5.0
30/02:40am 13.2 9.5 9.5 78 1.9 W 19 43 10 23 1013.1 1013.1 5.0
30/02:30am 11.0 7.4 6.7 75 2.0 W 15 37 8 20 1013.2 1013.2 5.0
30/02:00am 13.9 8.6 8.5 70 2.7 WSW 26 35 14 19 1012.9 1012.9 5.0
30/01:30am 13.2 6.6 7.9 70 2.6 WSW 32 41 17 22 1013.1 1013.1 5.0
30/01:00am 12.8 7.0 6.4 65 3.0 W 26 37 14 20 1012.9 1012.9 5.0
30/12:30am 12.6 8.8 8.9 78 1.9 W 19 37 10 20 1012.6 1012.6 5.0
30/12:00am 12.5 6.7 7.8 73 2.3 W 28 43 15 23 1012.6 1012.6 5.0
 
Date/Time
EDT
Temp
°C
App
Temp
°C
Dew
Point
°C
Rel
Hum
%
Delta-T
°C
Wind Press
QNH
hPa
Press
MSL
hPa
Rain since
9am
mm
Dir  Spd
km/h
Gust
km/h
Spd
kts
Gust
kts
29/11:30pm 12.0 7.4 10.9 93 0.6 WSW 26 41 14 22 1012.4 1012.4 5.0
29/11:00pm 10.8 8.4 10.2 96 0.3 WNW 13 28 7 15 1012.2 1012.2 5.0
29/10:30pm 10.7 8.3 10.1 96 0.3 NW 13 22 7 12 1011.9 1011.9 4.8
29/10:00pm 10.9 8.5 10.1 95 0.4 NW 13 17 7 9 1011.5 1011.5 4.8
29/09:30pm 11.1 9.1 10.3 95 0.4 NNW 11 19 6 10 1011.3 1011.3 4.8
29/09:00pm 11.4 9.9 10.6 95 0.4 NNW 9 15 5 8 1010.9 1010.9 3.0
29/08:30pm 11.4 9.5 10.5 94 0.5 NNW 11 15 6 8 1010.3 1010.3 2.8
29/08:00pm 11.7 9.9 10.8 94 0.5 NNW 11 19 6 10 1010.1 1010.1 2.8
29/07:30pm 12.2 11.4 11.1 93 0.6 NW 6 9 3 5 1009.7 1009.7 2.8
29/07:00pm 12.1 10.3 10.8 92 0.7 WNW 11 15 6 8 1009.6 1009.6 2.8
29/06:30pm 12.3 8.8 10.9 91 0.7 WSW 20 24 11 13 1009.0 1009.0 2.6
29/06:00pm 12.1 7.4 10.7 91 0.7 WSW 26 37 14 20 1009.4 1009.4 2.2
29/05:30pm 12.5 6.2 11.1 91 0.7 WSW 35 48 19 26 1008.5 1008.5 1.6
29/05:00pm 12.6 5.1 11.0 90 0.8 WSW 41 52 22 28 1008.5 1008.5 1.0
29/04:30pm 12.7 4.8 11.6 93 0.6 SW 44 59 24 32 1007.7 1007.7 0.8
29/04:00pm 13.4 5.8 12.3 93 0.6 SW 44 63 24 34 1007.0 1007.0 0.2
29/03:30pm 13.7 5.7 12.4 92 0.7 SW 46 61 25 33 1006.2 1006.2 0.2
29/03:00pm 15.6 8.3 13.3 86 1.3 SW 44 57 24 31 1004.9 1004.9 0.0
29/02:54pm 16.3 8.1 12.8 80 1.9 WSW 48 63 26 34 1004.8 1004.8 0.0
29/02:44pm 20.6 16.7 12.1 58 4.8 WNW 24 61 13 33 1004.5 1004.5 0.0
29/02:30pm 21.8 17.2 11.2 51 5.9 NW 26 44 14 24 1003.9 1003.9 0.0
29/02:01pm 23.2 18.5 11.9 49 6.4 NW 28 52 15 28 1004.2 1004.2 0.0
29/02:00pm 23.0 18.7 12.0 50 6.2 NW 26 52 14 28 1004.3 1004.3 0.0
29/01:30pm 21.5 17.5 11.8 54 5.4 NW 24 44 13 24 1004.9 1004.9 0.0
29/01:00pm 21.7 18.7 12.5 56 5.2 NW 20 37 11 20 1005.2 1005.2 0.0
29/12:30pm 20.9 18.0 12.8 60 4.6 NW 20 39 11 21 1005.5 1005.5 0.0
29/12:00pm 20.0 15.5 12.7 63 4.1 NW 28 46 15 25 1005.9 1005.9 0.0
29/11:30am 19.3 16.7 13.9 71 3.1 NNW 20 30 11 16 1006.2 1006.2 0.0
29/11:00am 18.5 16.6 14.2 76 2.5 NNW 17 32 9 17 1006.7 1006.7 0.0
29/10:30am 17.3 14.9 13.8 80 2.0 NNW 19 32 10 17 1007.1 1007.1 0.0
29/10:00am 16.9 14.8 13.6 81 1.9 NNW 17 28 9 15 1007.2 1007.2 0.0
29/09:30am 16.1 14.3 13.4 84 1.5 NNW 15 24 8 13 1007.2 1007.2 0.0
29/09:00am 15.9 13.2 13.0 83 1.6 NNW 19 32 10 17 1007.4 1007.4 0.2
29/08:30am 14.9 13.2 12.6 86 1.3 NNW 13 24 7 13 1007.6 1007.6 0.2
29/08:00am 14.2 12.3 11.9 86 1.2 N 13 19 7 10 1007.3 1007.3 0.2
29/07:30am 14.1 12.1 11.6 85 1.3 N 13 19 7 10 1007.3 1007.3 0.2
29/07:00am 14.2 11.8 11.5 84 1.4 N 15 20 8 11 1007.3 1007.3 0.2
29/06:30am 13.7 11.2 11.0 84 1.4 N 15 22 8 12 1007.1 1007.1 0.2
29/06:00am 13.3 10.3 10.8 85 1.3 N 17 24 9 13 1007.3 1007.3 0.2
29/05:30am 13.4 10.9 10.9 85 1.3 N 15 20 8 11 1007.4 1007.4 0.2
29/05:00am 13.0 10.3 10.5 85 1.3 N 15 20 8 11 1007.7 1007.7 0.2
29/04:30am 13.3 10.7 10.7 84 1.4 N 15 22 8 12 1008.1 1008.1 0.2
29/04:00am 13.2 10.9 10.6 84 1.4 N 13 19 7 10 1008.4 1008.4 0.2
29/03:30am 13.1 10.8 10.5 84 1.4 N 13 19 7 10 1008.6 1008.6 0.2
29/03:00am 13.2 11.3 10.6 84 1.4 N 11 17 6 9 1009.0 1009.0 0.2
29/02:30am 13.1 11.3 10.8 86 1.2 N 11 20 6 11 1009.4 1009.4 0.2
29/02:00am 12.3 10.7 10.2 87 1.1 N 9 15 5 8 1009.7 1009.7 0.2
29/01:30am 12.4 11.2 10.3 87 1.1 N 7 11 4 6 1010.2 1010.2 0.2
29/01:00am 12.3 11.1 10.2 87 1.1 NNW 7 9 4 5 1010.6 1010.6 0.2
29/12:30am 12.3 11.0 10.0 86 1.2 N 7 9 4 5 1010.7 1010.7 0.2
29/12:00am 13.2 12.1 10.6 84 1.4 N 7 11 4 6 1010.9 1010.9 0.2
 
Date/Time
EDT
Temp
°C
App
Temp
°C
Dew
Point
°C
Rel
Hum
%
Delta-T
°C
Wind Press
QNH
hPa
Press
MSL
hPa
Rain since
9am
mm
Dir  Spd
km/h
Gust
km/h
Spd
kts
Gust
kts
28/11:30pm 13.7 12.7 11.0 84 1.4 NNW 7 11 4 6 1011.2 1011.2 0.2
28/11:00pm 14.0 13.1 11.3 84 1.4 NNW 7 13 4 7 1011.1 1011.1 0.2
28/10:30pm 14.3 13.5 11.6 84 1.4 NW 7 11 4 6 1011.3 1011.3 0.2
28/10:00pm 14.9 14.2 11.9 82 1.6 WNW 7 13 4 7 1011.2 1011.2 0.2
28/09:30pm 15.8 14.5 12.5 81 1.8 WNW 11 17 6 9 1011.3 1011.3 0.2
28/09:00pm 15.8 14.1 12.5 81 1.8 W 13 19 7 10 1011.2 1011.2 0.2
28/08:30pm 16.1 14.1 12.8 81 1.8 W 15 20 8 11 1011.0 1011.0 0.2
28/08:00pm 16.5 14.6 13.0 80 2.0 W 15 22 8 12 1011.1 1011.1 0.2
28/07:30pm 16.7 14.5 13.4 81 1.9 W 17 22 9 12 1011.1 1011.1 0.2
28/07:00pm 17.3 15.5 13.2 77 2.3 WSW 15 20 8 11 1011.1 1011.1 0.2
28/06:30pm 18.3 16.6 13.6 74 2.7 W 15 20 8 11 1010.9 1010.9 0.2
28/06:00pm 18.8 17.6 13.9 73 2.8 WSW 13 20 7 11 1010.9 1010.9 0.2
28/05:30pm 18.9 16.8 13.7 72 3.0 WSW 17 20 9 11 1011.1 1011.1 0.2
28/05:00pm 18.4 15.8 13.3 72 2.9 WSW 19 22 10 12 1011.2 1011.2 0.2
28/04:30pm 19.9 17.6 12.9 64 4.0 WSW 17 24 9 13 1011.3 1011.3 0.2
28/04:00pm 19.7 16.6 12.2 62 4.2 WSW 20 30 11 16 1011.4 1011.4 0.2
28/03:30pm 19.3 16.4 12.8 66 3.7 WSW 20 28 11 15 1011.6 1011.6 0.2
28/03:00pm 20.4 17.2 11.1 55 5.1 WNW 19 32 10 17 1011.8 1011.8 0.2
28/02:30pm 20.4 17.0 11.3 56 5.0 WNW 20 32 11 17 1012.0 1012.0 0.2
28/02:00pm 20.8 17.4 12.5 59 4.7 W 22 35 12 19 1012.4 1012.4 0.2
28/01:30pm 20.1 16.0 11.6 58 4.7 W 24 41 13 22 1012.8 1012.8 0.2
28/01:00pm 19.2 15.0 11.0 59 4.5 W 24 33 13 18 1013.1 1013.1 0.2
28/12:30pm 19.6 15.3 10.9 57 4.7 W 24 46 13 25 1013.4 1013.4 0.2
28/12:00pm 19.8 16.6 11.8 60 4.4 WNW 20 32 11 17 1013.5 1013.5 0.2
28/11:30am 18.5 15.2 10.8 61 4.2 WNW 19 33 10 18 1013.6 1013.6 0.2

Other Formats:

Comma delimited format used in spreadsheet applications
http://www.bom.gov.au/fwo/IDV60801/IDV60801.94830.axf

JavaScript Object Notation format (JSON) in row-major order
http://www.bom.gov.au/fwo/IDV60801/IDV60801.94830.json